Atworth, United Kingdom
Current Conditions -  °F | °C
As of 11:20 AM on Thursday 18 Dec 2014 (Local Time) from EGGD Reporting Station
Broken Clouds Broken Clouds  
Wind Chill: 52°   Ceiling: 1200
Heat Index: 52°   Visibility: 6mi
Dew Point: 50°   Wind: 16mph
Humidity: 94%   Direction: 240°WSW
Pressure: 29.85"   Gusts: NA
Location:  51.39°N, 2.19°W
Report Text: EGGD 181120Z 24014KT 9999 BKN012 11/10 Q1011
Loading
Personal Weather Stations






























Interactive Weather Map New forecast layout! Learn more

10-Day Weather Forecast

Advertisements
Track Severe Weather on mobile